Time;durP1;ratioP1;P1;durP2;ratioP2;P2;SDS_P1;SDS_P2;PMS_P1;PMS_P2;Temp;Humidity;BMP_temperature;BMP_pressure;BME280_temperature;BME280_humidity;BME280_pressure;Samples;Min_cycle;Max_cycle;Signal;HPM_P1;HPM_P2
2023/07/15 07:01:24;;;;;;;0.75;0.75;;;22.70;99.90;27.40;100330.00;;;;6165911;22;1400842;-62
2023/07/15 07:03:53;;;;;;;0.10;0.10;;;23.20;99.90;28.30;100347.00;;;;6217533;23;20157;-62
2023/07/15 07:06:19;;;;;;;0.10;0.10;;;24.00;99.90;27.80;100373.00;;;;6191083;23;20151;-63
2023/07/15 07:08:51;;;;;;;0.45;0.20;;;24.60;99.90;27.50;100356.00;;;;6190908;23;20165;-62
2023/07/15 07:11:19;;;;;;;0.20;0.20;;;24.40;99.90;28.80;100349.00;;;;6217748;23;20298;-62
2023/07/15 07:13:45;;;;;;;0.10;0.10;;;24.70;99.90;30.10;100390.00;;;;6217462;23;20162;-63
2023/07/15 07:16:11;;;;;;;0.10;0.10;;;26.00;99.90;30.50;100408.00;;;;6190697;23;20142;-62
2023/07/15 07:19:07;;;;;;;0.10;0.10;;;26.50;99.90;31.00;100405.00;;;;6191048;23;20157;-62
2023/07/15 07:21:33;;;;;;;0.20;0.20;;;27.20;99.90;29.80;100421.00;;;;6187566;23;20162;-62
2023/07/15 07:24:10;;;;;;;0.43;0.32;;;26.80;99.90;30.50;100428.00;;;;6190940;23;20186;-62
2023/07/15 07:27:00;;;;;;;0.10;0.10;;;27.00;99.90;30.80;100424.00;;;;6191445;23;20142;-67
2023/07/15 07:29:26;;;;;;;0.10;0.10;;;26.30;99.90;32.30;100393.00;;;;6190630;23;20173;-62
2023/07/15 07:32:42;;;;;;;0.10;0.10;;;27.60;99.90;31.20;100419.00;;;;6217418;23;20174;-62
2023/07/15 07:35:08;;;;;;;0.10;0.10;;;27.20;99.90;30.60;100432.00;;;;6217133;23;20173;-62
2023/07/15 07:37:37;;;;;;;0.20;0.20;;;26.60;99.90;29.40;100434.00;;;;6216575;23;20139;-62
2023/07/15 07:40:48;;;;;;;0.10;0.10;;;26.30;99.90;31.00;100438.00;;;;6217191;23;20138;-62
2023/07/15 07:44:08;;;;;;;0.20;0.20;;;26.40;99.90;28.50;100463.00;;;;6217520;23;20169;-62
2023/07/15 07:46:40;;;;;;;0.17;0.10;;;26.00;99.90;26.60;100437.00;;;;6166461;23;20206;-62
2023/07/15 07:49:19;;;;;;;0.10;0.10;;;24.40;99.90;28.50;100404.00;;;;6216940;23;20538;-62
2023/07/15 07:51:49;;;;;;;0.30;0.30;;;24.40;99.90;26.20;100391.00;;;;6189707;23;20159;-62
2023/07/15 07:54:36;;;;;;;0.15;0.15;;;23.90;99.90;26.40;100362.00;;;;6189481;23;20614;-62
2023/07/15 07:57:07;;;;;;;0.10;0.10;;;23.50;99.90;27.60;100382.00;;;;6194884;23;20177;-62
2023/07/15 07:59:36;;;;;;;0.10;0.10;;;23.70;99.90;26.70;100361.00;;;;6222240;23;20229;-62
2023/07/15 08:02:02;;;;;;;0.10;0.10;;;23.80;99.90;27.00;100350.00;;;;6245906;23;20601;-64
2023/07/15 08:05:10;;;;;;;0.10;0.10;;;23.80;99.90;28.20;100404.00;;;;6220453;23;20138;-62
2023/07/15 08:07:46;;;;;;;0.10;0.10;;;24.20;99.90;27.00;100383.00;;;;6220783;23;20158;-62
2023/07/15 08:10:15;;;;;;;0.10;0.10;;;23.90;99.90;27.10;100378.00;;;;6220047;23;20157;-60
2023/07/15 08:12:42;;;;;;;0.10;0.10;;;23.80;99.90;27.50;100374.00;;;;6247411;23;20170;-60
2023/07/15 08:15:08;;;;;;;1.75;1.58;;;23.90;99.90;26.80;100401.00;;;;6220137;23;20138;-60
2023/07/15 08:17:34;;;;;;;0.20;0.20;;;24.00;99.90;26.50;100378.00;;;;6247106;23;20203;-60
2023/07/15 08:20:10;;;;;;;0.20;0.20;;;23.70;99.90;27.20;100407.00;;;;6247232;23;20165;-61
2023/07/15 08:22:37;;;;;;;0.20;0.20;;;24.00;99.90;25.90;100390.00;;;;6220004;23;20168;-61
2023/07/15 08:25:31;;;;;;;0.10;0.10;;;23.50;99.90;26.00;100372.00;;;;6247341;23;20228;-61
2023/07/15 08:28:44;;;;;;;0.22;0.22;;;23.30;99.90;26.00;100392.00;;;;6246838;23;20162;-61
2023/07/15 08:31:55;;;;;;;0.10;0.10;;;23.30;99.90;27.30;100420.00;;;;6246681;23;20161;-61
2023/07/15 08:34:21;;;;;;;0.10;0.10;;;23.90;99.90;28.30;100454.00;;;;6220398;23;20153;-61
2023/07/15 08:37:40;;;;;;;0.10;0.10;;;24.60;99.90;28.50;100461.00;;;;6246566;23;20191;-61
2023/07/15 08:41:27;;;;;;;0.10;0.10;;;25.20;99.90;28.70;100465.00;;;;6247263;23;20165;-61
2023/07/15 08:44:59;;;;;;;0.10;0.10;;;25.10;99.90;29.10;100464.00;;;;6246735;23;20199;-61
2023/07/15 08:48:08;;;;;;;0.10;0.10;;;25.40;99.90;29.00;100462.00;;;;6245164;23;20161;-61
2023/07/15 08:51:38;;;;;;;0.10;0.10;;;25.40;99.90;28.80;100472.00;;;;6218884;23;20215;-61
2023/07/15 08:54:48;;;;;;;0.10;0.10;;;25.40;99.90;29.10;100482.00;;;;6222573;23;20146;-61
2023/07/15 08:57:53;;;;;;;0.13;0.13;;;25.60;99.90;27.50;100467.00;;;;6246887;23;20204;-61
2023/07/15 09:00:46;;;;;;;1.95;0.60;;;24.90;99.90;26.80;100449.00;;;;6220152;23;20606;-61
2023/07/15 09:03:22;;;;;;;7.88;0.63;;;24.30;99.90;26.70;100430.00;;;;6246409;23;20150;-65
2023/07/15 09:06:14;;;;;;;0.40;0.40;;;24.00;99.90;26.80;100424.00;;;;6246608;23;20177;-64
2023/07/15 09:09:06;;;;;;;0.10;0.10;;;24.00;99.90;27.50;100425.00;;;;6219476;23;20157;-64
2023/07/15 09:12:05;;;;;;;0.28;0.28;;;24.00;99.90;26.20;100400.00;;;;6194579;23;20157;-64
2023/07/15 09:14:32;;;;;;;0.10;0.10;;;23.70;99.90;28.50;100431.00;;;;6219974;23;20244;-64
2023/07/15 09:16:59;;;;;;;0.63;0.63;;;24.20;99.90;26.70;100447.00;;;;6218818;23;20499;-67
2023/07/15 09:20:09;;;;;;;0.10;0.10;;;24.00;99.90;26.90;100411.00;;;;6246913;23;20477;-62
2023/07/15 09:23:01;;;;;;;0.10;0.10;;;23.90;99.90;27.40;100434.00;;;;6194777;23;20255;-64
2023/07/15 09:26:04;;;;;;;0.35;0.35;;;23.70;99.90;27.00;100404.00;;;;6246733;23;20157;-63
2023/07/15 09:28:32;;;;;;;0.10;0.10;;;23.60;99.90;28.00;100437.00;;;;6193399;23;20638;-64
2023/07/15 09:31:01;;;;;;;0.40;0.40;;;24.00;99.90;27.80;100435.00;;;;6219021;23;20624;-64
2023/07/15 09:33:39;;;;;;;0.28;0.28;;;24.50;99.90;27.10;100441.00;;;;6219430;23;20173;-64
2023/07/15 09:36:06;;;;;;;0.30;0.30;;;24.30;99.90;27.00;100407.00;;;;6220491;23;20141;-64
2023/07/15 09:38:35;;;;;;;0.10;0.10;;;24.20;99.90;28.00;100412.00;;;;6219800;23;20153;-64
2023/07/15 09:41:02;;;;;;;0.73;0.73;;;24.50;99.90;28.50;100423.00;;;;6246636;23;20566;-64
2023/07/15 09:43:49;;;;;;;0.30;0.30;;;24.80;99.90;29.30;100459.00;;;;6194305;23;20157;-64
2023/07/15 09:46:20;;;;;;;0.10;0.10;;;25.70;99.90;31.90;100445.00;;;;6218119;23;20175;-64
2023/07/15 09:49:07;;;;;;;0.10;0.10;;;27.10;99.90;31.20;100459.00;;;;6217568;23;20149;-65
2023/07/15 09:51:34;;;;;;;0.30;0.30;;;28.00;99.90;28.70;100496.00;;;;6246481;23;20221;-64
2023/07/15 09:54:04;;;;;;;2.17;0.75;;;26.90;99.90;28.90;100486.00;;;;6219371;23;20156;-64
2023/07/15 09:56:53;;;;;;;1.52;0.43;;;26.40;99.90;28.90;100475.00;;;;6219363;23;20574;-64
2023/07/15 09:59:22;;;;;;;2.28;1.23;;;26.10;99.90;27.40;100456.00;;;;6218949;23;20158;-64
2023/07/15 10:01:53;;;;;;;0.10;0.10;;;25.40;99.90;29.60;100428.00;;;;6193074;23;20549;-64
2023/07/15 10:04:32;;;;;;;0.10;0.10;;;25.60;99.90;32.10;100453.00;;;;6217601;23;20153;-65
2023/07/15 10:07:03;;;;;;;0.20;0.20;;;27.50;99.90;32.20;100465.00;;;;6245626;23;20232;-64
2023/07/15 10:09:33;;;;;;;0.10;0.10;;;28.60;99.90;32.10;100467.00;;;;6217600;23;20146;-64
2023/07/15 10:12:03;;;;;;;1.25;1.15;;;28.70;99.90;28.80;100491.00;;;;6219314;23;20640;-64
2023/07/15 10:14:31;;;;;;;0.60;0.60;;;27.10;99.90;28.00;100481.00;;;;6168968;23;20165;-64
2023/07/15 10:17:16;;;;;;;0.10;0.10;;;25.80;99.90;29.50;100460.00;;;;6245761;23;20153;-64
2023/07/15 10:19:47;;;;;;;0.40;0.30;;;25.70;99.90;28.60;100465.00;;;;6245971;23;20232;-64
2023/07/15 10:34:13;;;;;;;0.90;0.57;;;25.50;99.90;30.60;100392.00;;;;5040338;27;20638;-65
2023/07/15 10:37:20;;;;;;;0.70;0.70;;;26.60;99.90;29.30;100425.00;;;;5030016;28;20664;-65
2023/07/15 10:40:55;;;;;;;0.10;0.10;;;26.70;99.90;28.30;100391.00;;;;5044904;28;20218;-65
2023/07/15 10:43:43;;;;;;;0.13;0.13;;;25.60;99.90;28.40;100369.00;;;;5016303;28;20181;-62
2023/07/15 10:46:11;;;;;;;0.20;0.20;;;25.10;99.90;31.10;100388.00;;;;5029580;28;20202;-63
2023/07/15 10:49:25;;;;;;;0.10;0.10;;;26.60;99.90;30.50;100432.00;;;;5045996;28;20195;-64
2023/07/15 10:52:32;;;;;;;0.10;0.10;;;27.20;99.90;28.50;100423.00;;;;5023731;28;20217;-63
2023/07/15 10:54:57;;;;;;;0.10;0.10;;;26.30;99.90;29.00;100438.00;;;;5038095;28;20645;-63
2023/07/15 10:57:46;;;;;;;0.10;0.10;;;25.70;99.90;30.80;100398.00;;;;5045430;28;20186;-63
2023/07/15 11:00:14;;;;;;;3.20;1.30;;;26.50;99.90;31.60;100392.00;;;;5027940;28;20211;-64
2023/07/15 11:02:40;;;;;;;0.10;0.10;;;27.70;99.90;30.30;100397.00;;;;5030048;28;20270;-64
2023/07/15 11:05:10;;;;;;;0.75;0.75;;;27.40;99.90;31.10;100402.00;;;;5044924;28;20318;-64
2023/07/15 11:07:35;;;;;;;0.57;0.57;;;27.90;99.90;29.60;100394.00;;;;5045340;28;20179;-64
2023/07/15 11:10:01;;;;;;;0.13;0.13;;;27.00;99.90;29.00;100427.00;;;;5028758;28;20179;-63
2023/07/15 11:12:32;;;;;;;1.42;0.65;;;26.60;99.90;29.50;100433.00;;;;5029238;28;20195;-63
2023/07/15 11:15:19;;;;;;;0.25;0.25;;;26.60;99.90;31.50;100374.00;;;;5044823;28;20182;-64
2023/07/15 11:17:45;;;;;;;0.20;0.20;;;27.50;99.90;32.20;100370.00;;;;5024148;28;20182;-64
2023/07/15 11:20:14;;;;;;;2.25;0.60;;;28.40;99.90;30.80;100403.00;;;;5019505;28;20202;-64
2023/07/15 11:22:43;;;;;;;0.13;0.13;;;28.10;99.90;30.20;100405.00;;;;5029682;28;20234;-65
2023/07/15 11:25:29;;;;;;;0.10;0.10;;;27.50;99.90;32.40;100393.00;;;;5029788;28;20183;-64
2023/07/15 11:27:59;;;;;;;0.45;0.45;;;28.20;99.90;33.70;100340.00;;;;5044474;28;20182;-64
2023/07/15 11:30:40;;;;;;;1.55;0.82;;;29.60;99.90;28.30;100430.00;;;;5029881;28;20218;-63
2023/07/15 11:33:07;;;;;;;1.80;0.40;;;27.50;99.90;30.10;100392.00;;;;5030763;28;20241;-63
2023/07/15 11:35:35;;;;;;;0.20;0.20;;;27.60;99.90;31.00;100385.00;;;;5041744;28;20241;-63
2023/07/15 11:38:14;;;;;;;0.40;0.40;;;27.70;99.90;31.50;100344.00;;;;5045108;28;20191;-64
2023/07/15 11:40:54;;;;;;;0.10;0.10;;;28.30;99.90;31.30;100356.00;;;;5024924;28;20302;-64
2023/07/15 11:43:28;;;;;;;0.20;0.20;;;28.20;99.90;30.10;100381.00;;;;5020169;28;20218;-64
2023/07/15 11:46:03;;;;;;;0.10;0.10;;;28.10;99.90;31.50;100361.00;;;;5014465;28;20638;-64
2023/07/15 11:49:01;;;;;;;0.10;0.10;;;28.40;99.90;34.40;100321.00;;;;4999254;28;20200;-64
2023/07/15 11:51:56;;;;;;;0.10;0.10;;;30.50;99.90;32.70;100347.00;;;;5029960;28;20230;-64
2023/07/15 11:54:25;;;;;;;0.30;0.30;;;29.00;99.90;32.00;100344.00;;;;5021569;28;20528;-64
2023/07/15 11:57:00;;;;;;;0.10;0.10;;;28.90;99.90;32.50;100339.00;;;;5014032;28;20194;-64
2023/07/15 11:59:31;;;;;;;1.35;0.45;;;28.90;99.90;32.80;100339.00;;;;5015040;28;20687;-64
2023/07/15 12:02:40;;;;;;;0.30;0.30;;;29.30;99.90;32.90;100336.00;;;;5030806;28;20658;-64
2023/07/15 12:05:13;;;;;;;1.23;0.77;;;29.00;99.90;29.50;100396.00;;;;5031141;28;20661;-63
2023/07/15 12:07:46;;;;;;;0.10;0.10;;;27.90;99.90;31.70;100366.00;;;;5014461;28;20183;-63
2023/07/15 12:10:19;;;;;;;0.10;0.10;;;28.00;99.90;31.50;100364.00;;;;5030575;28;20577;-63
2023/07/15 12:13:05;;;;;;;1.15;0.55;;;28.00;99.90;31.30;100346.00;;;;5012786;28;20191;-63
2023/07/15 12:15:56;;;;;;;0.20;0.20;;;27.90;99.90;32.20;100347.00;;;;5012393;28;20705;-63
2023/07/15 12:18:42;;;;;;;0.57;0.50;;;28.10;99.90;30.00;100396.00;;;;5009735;28;20199;-62
2023/07/15 12:21:30;;;;;;;0.10;0.10;;;27.50;99.90;31.30;100375.00;;;;5014820;28;20196;-62
2023/07/15 12:24:19;;;;;;;0.20;0.20;;;27.60;99.90;30.80;100382.00;;;;5002158;28;20336;-61
2023/07/15 12:26:47;;;;;;;0.80;0.40;;;27.60;99.90;30.50;100380.00;;;;5012728;28;20199;-61
2023/07/15 12:29:33;;;;;;;0.20;0.20;;;27.70;99.90;30.70;100382.00;;;;5015499;28;20198;-61
2023/07/15 12:32:27;;;;;;;0.10;0.10;;;27.60;99.90;30.50;100378.00;;;;5010625;28;20226;-61
2023/07/15 12:35:15;;;;;;;9.30;1.65;;;27.40;99.90;30.20;100383.00;;;;5029487;28;20176;-61
2023/07/15 12:38:01;;;;;;;1.25;0.52;;;27.40;99.90;30.20;100379.00;;;;4973638;28;20798;-61
2023/07/15 12:40:32;;;;;;;0.10;0.10;;;27.10;99.90;30.70;100344.00;;;;5006582;28;20203;-61
2023/07/15 12:43:25;;;;;;;2.17;0.40;;;27.20;99.90;31.90;100317.00;;;;5013207;28;20732;-62
2023/07/15 12:46:09;;;;;;;7.22;0.30;;;27.60;99.90;30.80;100341.00;;;;5026583;28;20234;-61
2023/07/15 12:48:40;;;;;;;0.28;0.22;;;27.70;99.90;30.80;100349.00;;;;5015446;28;20192;-61
2023/07/15 12:51:35;;;;;;;0.20;0.20;;;27.50;99.90;31.20;100344.00;;;;5014975;28;20190;-61
2023/07/15 12:54:06;;;;;;;1.95;0.30;;;27.70;99.90;31.30;100362.00;;;;5011130;28;20207;-61
2023/07/15 12:56:40;;;;;;;0.50;0.50;;;27.70;99.90;30.80;100362.00;;;;5013731;28;20184;-61
2023/07/15 12:59:09;;;;;;;1.00;0.82;;;27.80;99.90;31.10;100371.00;;;;5014885;28;20247;-62
2023/07/15 13:01:45;;;;;;;0.32;0.20;;;27.70;99.90;30.60;100377.00;;;;5014404;28;20713;-62
2023/07/15 13:04:21;;;;;;;0.47;0.43;;;27.60;99.90;30.50;100363.00;;;;5011405;28;20175;-62
2023/07/15 13:06:56;;;;;;;0.43;0.43;;;27.30;99.90;30.70;100347.00;;;;5030475;28;20187;-62
2023/07/15 13:09:43;;;;;;;0.30;0.30;;;27.30;99.90;30.60;100367.00;;;;5002558;28;20633;-62
2023/07/15 13:12:23;;;;;;;0.25;0.25;;;27.50;99.90;30.80;100352.00;;;;5001669;28;20764;-62
2023/07/15 13:15:18;;;;;;;0.20;0.20;;;27.50;99.90;30.50;100342.00;;;;5014473;28;20725;-62
2023/07/15 13:17:44;;;;;;;0.40;0.38;;;27.30;99.90;30.90;100332.00;;;;5014343;28;20191;-62
2023/07/15 13:20:10;;;;;;;0.20;0.20;;;27.60;99.90;30.50;100373.00;;;;5014507;28;20176;-62
2023/07/15 13:22:37;;;;;;;0.30;0.30;;;27.30;99.90;29.80;100383.00;;;;5014123;28;20194;-62
2023/07/15 13:25:18;;;;;;;0.20;0.20;;;27.10;99.90;29.70;100373.00;;;;5014488;28;20642;-63
2023/07/15 13:27:44;;;;;;;0.20;0.20;;;26.90;99.90;30.30;100362.00;;;;5025683;28;20207;-65
2023/07/15 13:30:10;;;;;;;1.10;1.00;;;26.90;99.90;30.60;100344.00;;;;5013636;28;20183;-62
2023/07/15 13:32:37;;;;;;;1.30;1.20;;;27.00;99.90;30.10;100336.00;;;;5014209;28;20242;-62
2023/07/15 13:35:03;;;;;;;0.55;0.55;;;27.10;99.90;30.30;100323.00;;;;5028503;28;20215;-61
2023/07/15 13:37:29;;;;;;;12.85;1.02;;;27.00;99.90;29.40;100370.00;;;;5014031;28;20262;-61
2023/07/15 13:39:55;;;;;;;0.30;0.30;;;26.80;99.90;29.70;100350.00;;;;5014018;28;20267;-61
2023/07/15 13:42:22;;;;;;;1.30;0.40;;;26.60;99.90;29.80;100363.00;;;;5012764;28;20559;-61
2023/07/15 13:44:50;;;;;;;0.43;0.35;;;26.70;99.90;29.90;100355.00;;;;5014090;28;20191;-61
2023/07/15 13:47:17;;;;;;;0.47;0.47;;;26.90;99.90;29.20;100354.00;;;;5013565;28;20222;-61
2023/07/15 13:49:43;;;;;;;0.32;0.32;;;26.50;99.90;29.40;100348.00;;;;5013959;28;20183;-61
2023/07/15 13:52:12;;;;;;;0.47;0.47;;;26.50;99.90;29.30;100347.00;;;;5013590;28;20203;-61
2023/07/15 13:54:37;;;;;;;0.30;0.30;;;26.40;99.90;29.20;100369.00;;;;5012815;28;20191;-61
2023/07/15 13:57:06;;;;;;;0.40;0.40;;;26.30;99.90;29.70;100341.00;;;;5014181;28;20180;-61
2023/07/15 13:59:37;;;;;;;3.28;0.80;;;26.50;99.90;29.90;100325.00;;;;5008573;28;20229;-61
2023/07/15 14:02:04;;;;;;;0.77;0.57;;;26.60;99.90;29.60;100332.00;;;;5003353;28;20246;-61
2023/07/15 14:04:50;;;;;;;0.20;0.20;;;26.70;99.90;30.00;100319.00;;;;5014096;28;20661;-61
2023/07/15 14:07:21;;;;;;;0.20;0.20;;;26.80;99.90;29.70;100331.00;;;;5003769;28;20199;-61
2023/07/15 14:10:04;;;;;;;0.60;0.60;;;26.80;99.90;29.40;100345.00;;;;5012712;28;20195;-61
2023/07/15 14:12:53;;;;;;;4.25;0.43;;;26.60;99.90;29.40;100355.00;;;;5013354;28;20211;-61
2023/07/15 14:15:20;;;;;;;0.10;0.10;;;26.50;99.90;29.80;100338.00;;;;5021918;28;20184;-61
2023/07/15 14:17:55;;;;;;;0.20;0.20;;;26.50;99.90;29.80;100369.00;;;;5008726;28;20164;-61
2023/07/15 14:20:30;;;;;;;0.10;0.10;;;26.40;99.90;30.70;100354.00;;;;5028615;28;20210;-61
2023/07/15 14:23:45;;;;;;;0.17;0.17;;;26.70;99.90;29.90;100403.00;;;;5011596;28;20179;-61
2023/07/15 14:26:12;;;;;;;2.85;0.93;;;26.80;99.90;25.80;100499.00;;;;5022070;28;20180;-61
2023/07/15 14:29:18;;;;;;;2.42;0.68;;;24.60;99.90;25.70;100373.00;;;;5013603;28;20194;-61
2023/07/15 14:32:10;;;;;;;1.38;0.90;;;23.60;99.90;23.50;100371.00;;;;5009338;28;20207;-61
2023/07/15 14:35:00;;;;;;;2.20;1.15;;;21.90;99.90;22.80;100364.00;;;;5011755;28;20176;-65
2023/07/15 14:37:35;;;;;;;2.42;0.30;;;21.00;99.90;22.10;100354.00;;;;5008833;28;20546;-64
2023/07/15 14:40:05;;;;;;;0.28;0.28;;;20.60;99.90;22.90;100344.00;;;;5008847;28;20430;-65
2023/07/15 14:42:30;;;;;;;0.32;0.32;;;20.60;99.90;22.90;100330.00;;;;5005850;28;20196;-63
2023/07/15 14:44:59;;;;;;;0.22;0.22;;;20.80;99.90;23.90;100345.00;;;;5013236;28;20195;-62
2023/07/15 14:47:25;;;;;;;0.70;0.70;;;21.20;99.90;24.00;100341.00;;;;5013360;28;20213;-65
2023/07/15 14:49:53;;;;;;;1.25;0.98;;;21.50;99.90;23.10;100330.00;;;;4998966;28;20258;-64
2023/07/15 14:53:15;;;;;;;1.25;0.63;;;21.20;99.90;24.40;100354.00;;;;5007629;28;20207;-63
2023/07/15 14:56:24;;;;;;;1.25;0.40;;;21.40;99.90;25.20;100323.00;;;;5019878;28;20194;-63
2023/07/15 14:58:55;;;;;;;2.17;1.58;;;21.80;99.90;24.60;100306.00;;;;5013123;28;20195;-63
2023/07/15 15:01:21;;;;;;;0.43;0.43;;;22.10;99.90;25.00;100277.00;;;;5007194;28;20701;-65
2023/07/15 15:04:04;;;;;;;0.50;0.50;;;22.10;99.90;25.20;100307.00;;;;5018451;28;20283;-62
2023/07/15 15:06:30;;;;;;;0.70;0.70;;;22.30;99.90;23.50;100305.00;;;;5012829;28;20184;-62
2023/07/15 15:08:56;;;;;;;0.70;0.70;;;22.10;99.90;24.10;100314.00;;;;5012928;28;20707;-61
2023/07/15 15:11:22;;;;;;;0.38;0.38;;;22.00;99.90;24.10;100289.00;;;;5013195;28;20180;-62
2023/07/15 15:13:53;;;;;;;0.43;0.43;;;21.80;99.90;23.70;100305.00;;;;5027903;28;20642;-62
2023/07/15 15:16:24;;;;;;;0.10;0.10;;;21.60;99.90;25.20;100309.00;;;;5011883;28;20183;-62
2023/07/15 15:18:52;;;;;;;0.75;0.75;;;22.20;99.90;25.10;100324.00;;;;5013299;28;20186;-62
2023/07/15 15:21:21;;;;;;;10.88;1.13;;;22.40;99.90;24.90;100342.00;;;;5016251;28;20207;-61
2023/07/15 15:23:50;;;;;;;1.85;1.25;;;22.40;99.90;25.10;100339.00;;;;5031761;28;20211;-61
2023/07/15 15:26:21;;;;;;;0.25;0.25;;;22.40;99.90;24.60;100333.00;;;;5016491;28;20190;-61
2023/07/15 15:29:07;;;;;;;1.77;1.63;;;22.40;99.90;25.00;100325.00;;;;5025868;28;20179;-62
2023/07/15 15:31:34;;;;;;;1.05;0.95;;;22.50;99.90;24.70;100320.00;;;;5002479;28;20223;-62
2023/07/15 15:34:01;;;;;;;1.25;0.68;;;22.40;99.90;25.50;100331.00;;;;5016460;28;20207;-62
2023/07/15 15:36:37;;;;;;;0.95;0.95;;;22.70;99.90;25.00;100330.00;;;;5022611;28;20191;-62
2023/07/15 15:39:22;;;;;;;1.33;0.73;;;22.60;99.90;25.20;100337.00;;;;5017009;28;20187;-62
2023/07/15 15:42:43;;;;;;;2.40;1.15;;;22.70;99.90;25.20;100354.00;;;;5013353;28;20638;-62
2023/07/15 15:45:26;;;;;;;0.40;0.40;;;22.70;99.90;25.40;100355.00;;;;5010415;28;20191;-62
2023/07/15 15:48:17;;;;;;;0.40;0.40;;;22.80;99.90;25.50;100336.00;;;;5024440;28;20195;-62
2023/07/15 15:51:23;;;;;;;0.40;0.40;;;23.00;99.90;25.30;100349.00;;;;5003460;28;20199;-62
2023/07/15 15:54:00;;;;;;;0.80;0.50;;;23.10;99.90;24.90;100336.00;;;;5011254;28;20218;-62
2023/07/15 15:56:46;;;;;;;0.57;0.57;;;22.80;99.90;25.30;100309.00;;;;5030500;28;20192;-62
2023/07/15 15:59:51;;;;;;;2.15;0.85;;;22.90;99.90;25.70;100288.00;;;;5015712;28;20278;-62
2023/07/15 16:03:14;;;;;;;2.38;0.40;;;23.30;99.90;25.20;100321.00;;;;5011019;28;20191;-62
2023/07/15 16:06:15;;;;;;;0.70;0.70;;;23.30;99.90;26.40;100340.00;;;;5030274;28;20186;-61
2023/07/15 16:09:31;;;;;;;0.98;0.50;;;23.40;99.90;26.70;100337.00;;;;5029397;28;20211;-61
2023/07/15 16:12:50;;;;;;;0.30;0.30;;;23.60;99.90;26.10;100319.00;;;;5030889;28;20207;-61
2023/07/15 16:15:17;;;;;;;1.30;0.47;;;23.60;99.90;25.90;100320.00;;;;5026642;28;20215;-61
2023/07/15 16:17:46;;;;;;;1.52;0.60;;;23.50;99.90;27.00;100340.00;;;;5005963;28;20199;-62
2023/07/15 16:20:17;;;;;;;0.20;0.20;;;23.80;99.90;26.10;100346.00;;;;5008659;28;20319;-61
2023/07/15 16:22:43;;;;;;;1.45;0.50;;;23.70;99.90;25.80;100345.00;;;;5018498;28;20211;-61
2023/07/15 16:25:42;;;;;;;0.10;0.10;;;23.70;99.90;25.90;100377.00;;;;5012909;28;20190;-61
2023/07/15 16:28:11;;;;;;;0.52;0.40;;;23.60;99.90;25.80;100399.00;;;;5009773;28;20279;-61
2023/07/15 16:31:06;;;;;;;0.43;0.43;;;23.40;99.90;26.20;100414.00;;;;5008866;28;20193;-61
2023/07/15 16:33:32;;;;;;;0.57;0.35;;;23.30;99.90;26.60;100416.00;;;;5013959;28;20219;-62
2023/07/15 16:37:08;;;;;;;0.17;0.17;;;23.50;99.90;26.10;100414.00;;;;5014749;28;20217;-61
2023/07/15 16:40:11;;;;;;;0.15;0.15;;;23.50;99.90;26.40;100445.00;;;;5005369;28;20555;-61
2023/07/15 16:43:23;;;;;;;0.45;0.45;;;23.60;99.90;27.30;100426.00;;;;5007342;28;20218;-61
2023/07/15 16:46:24;;;;;;;3.42;0.93;;;23.60;99.90;26.40;100452.00;;;;5022774;28;20222;-62
2023/07/15 16:49:53;;;;;;;1.95;0.60;;;23.60;99.90;26.40;100425.00;;;;5011413;28;20187;-62
2023/07/15 16:53:19;;;;;;;1.00;0.90;;;23.50;99.90;26.10;100449.00;;;;5012631;28;20198;-62
2023/07/15 16:56:29;;;;;;;0.95;0.95;;;23.40;99.90;26.40;100437.00;;;;5021537;28;20179;-62
2023/07/15 16:59:39;;;;;;;2.28;0.88;;;23.40;99.90;26.30;100428.00;;;;5009735;28;20277;-61
2023/07/15 17:02:25;;;;;;;3.63;1.63;;;23.40;99.90;26.70;100440.00;;;;5014313;28;20179;-61
2023/07/15 17:05:49;;;;;;;1.15;0.30;;;23.50;99.90;27.00;100449.00;;;;5014466;28;20336;-61
2023/07/15 17:08:52;;;;;;;1.40;0.40;;;23.90;99.90;25.50;100462.00;;;;5007738;28;20206;-61
2023/07/15 17:12:00;;;;;;;0.52;0.52;;;23.60;99.90;25.60;100473.00;;;;5011204;28;20228;-61
2023/07/15 17:15:28;;;;;;;0.45;0.40;;;23.40;99.90;26.20;100468.00;;;;5010290;28;20199;-61
2023/07/15 17:18:56;;;;;;;1.05;0.68;;;23.40;99.90;25.90;100471.00;;;;5013234;28;20571;-62
2023/07/15 17:22:00;;;;;;;3.65;0.55;;;23.30;99.90;26.10;100464.00;;;;5009808;28;20239;-61
2023/07/15 17:25:18;;;;;;;0.55;0.47;;;22.90;99.90;25.50;100457.00;;;;5007669;28;20203;-62
2023/07/15 17:28:09;;;;;;;2.20;1.00;;;22.80;99.90;25.90;100455.00;;;;5027499;28;20184;-61
2023/07/15 17:31:23;;;;;;;0.10;0.10;;;23.00;99.90;26.00;100449.00;;;;5028691;28;20183;-61
2023/07/15 17:34:36;;;;;;;2.85;0.75;;;23.00;99.90;25.90;100432.00;;;;5012887;28;20191;-62
2023/07/15 17:37:44;;;;;;;0.80;0.80;;;23.30;99.90;27.30;100441.00;;;;5006734;28;20190;-62
2023/07/15 17:40:53;;;;;;;3.38;1.08;;;23.60;99.90;27.60;100445.00;;;;5012997;28;20190;-61
2023/07/15 17:44:01;;;;;;;5.45;1.75;;;24.00;99.90;27.60;100440.00;;;;5005324;28;20290;-62
2023/07/15 17:46:48;;;;;;;0.10;0.10;;;23.90;99.90;28.50;100432.00;;;;5005440;28;20216;-62
2023/07/15 17:49:56;;;;;;;0.70;0.68;;;24.30;99.90;27.00;100448.00;;;;5027533;28;20239;-61
2023/07/15 17:52:59;;;;;;;0.40;0.40;;;24.00;99.90;28.40;100441.00;;;;5005370;28;20660;-62
2023/07/15 17:55:45;;;;;;;0.57;0.50;;;24.20;99.90;27.70;100463.00;;;;5012620;28;20668;-62
2023/07/15 17:58:21;;;;;;;0.30;0.30;;;24.30;99.90;26.90;100460.00;;;;5011454;28;20199;-62
2023/07/15 18:01:15;;;;;;;0.10;0.10;;;24.10;99.90;27.80;100477.00;;;;5028463;28;20191;-62
2023/07/15 18:04:08;;;;;;;0.77;0.77;;;23.90;99.90;25.70;100515.00;;;;5012623;28;20186;-62
2023/07/15 18:06:42;;;;;;;2.67;0.70;;;23.40;99.90;24.80;100474.00;;;;5002651;28;20191;-62
2023/07/15 18:09:36;;;;;;;1.05;0.75;;;22.70;99.90;24.90;100483.00;;;;5019458;28;20676;-62
2023/07/15 18:13:05;;;;;;;0.10;0.10;;;22.40;99.90;25.20;100495.00;;;;4991635;28;20761;-62
2023/07/15 18:16:17;;;;;;;0.80;0.80;;;22.30;99.90;25.50;100483.00;;;;5024192;28;20760;-62
2023/07/15 18:19:42;;;;;;;0.10;0.10;;;22.40;99.90;25.10;100482.00;;;;5012781;28;20219;-62
2023/07/15 18:23:00;;;;;;;4.97;1.00;;;22.30;99.90;25.00;100453.00;;;;5008394;28;20565;-62
2023/07/15 18:25:28;;;;;;;0.43;0.43;;;22.20;99.90;24.50;100475.00;;;;5001308;28;20270;-63
2023/07/15 18:28:17;;;;;;;0.30;0.20;;;22.10;99.90;24.50;100484.00;;;;5028326;28;20184;-63
2023/07/15 18:30:51;;;;;;;2.13;0.70;;;22.20;99.90;24.80;100472.00;;;;5013005;28;20184;-62
2023/07/15 18:33:50;;;;;;;5.75;1.85;;;22.10;99.90;24.90;100464.00;;;;5010036;28;20314;-63
2023/07/15 18:36:45;;;;;;;0.28;0.28;;;22.30;99.90;25.00;100489.00;;;;5025498;28;20184;-63
2023/07/15 18:39:58;;;;;;;1.20;0.55;;;22.30;99.90;25.50;100504.00;;;;5009549;28;20638;-63
2023/07/15 18:43:37;;;;;;;2.08;1.38;;;22.30;99.90;25.00;100517.00;;;;5004766;28;20187;-63
2023/07/15 18:46:45;;;;;;;0.50;0.25;;;22.40;99.90;25.60;100519.00;;;;5007541;28;20191;-63
2023/07/15 18:50:20;;;;;;;1.55;1.15;;;22.40;99.90;25.40;100525.00;;;;5011479;28;20208;-62
2023/07/15 18:52:46;;;;;;;3.10;1.67;;;22.30;99.90;25.50;100500.00;;;;5000517;28;20223;-62
2023/07/15 18:55:57;;;;;;;1.35;0.40;;;22.50;99.90;25.40;100515.00;;;;5016645;28;20254;-62
2023/07/15 18:59:12;;;;;;;0.20;0.20;;;22.30;99.90;24.60;100530.00;;;;5021903;28;20187;-62
2023/07/15 19:01:38;;;;;;;0.40;0.40;;;22.00;99.90;25.10;100526.00;;;;5013537;28;20238;-62
2023/07/15 19:04:21;;;;;;;0.13;0.13;;;22.10;99.90;24.90;100526.00;;;;5015371;28;20188;-63
2023/07/15 19:07:34;;;;;;;0.88;0.20;;;22.00;99.90;24.80;100492.00;;;;5011577;28;20191;-62
2023/07/15 19:10:43;;;;;;;1.98;0.60;;;21.80;99.90;24.90;100536.00;;;;5016254;28;20274;-65
2023/07/15 19:13:49;;;;;;;0.30;0.30;;;22.00;99.90;25.60;100521.00;;;;5022736;28;20251;-62
2023/07/15 19:17:10;;;;;;;1.00;0.73;;;22.10;99.90;24.90;100527.00;;;;5028979;28;20641;-62
2023/07/15 19:20:28;;;;;;;1.45;0.75;;;21.90;99.90;25.20;100530.00;;;;5012310;28;20195;-62